LIMF/TRN METAR and TAF weather

Enter ICAO airport designator
Station Type Date Time Source
LIMF METAR 2019/09/20 09:50 UTC NOAA

LIMF 200950Z 06005KT 340V110 CAVOK 18/10 Q1026


Station Type Date Time Source
LIMF Decoded METAR 2019/09/20 09:50 UTC NOAA

Torino / Caselle, Italy (LIMF) 45-13N 007-39E 287M
Sep 20, 2019 - 05:50 AM EDT / 2019.09.20 0950 UTC
Wind: from the ENE (060 degrees) at 6 MPH (5 KT) (direction variable):0
Visibility: greater than 7 mile(s):0
Temperature: 64 F (18 C)
Dew Point: 50 F (10 C)
Relative Humidity: 59%
Pressure (altimeter): 30.30 in. Hg (1026 hPa)
ob: LIMF 200950Z 06005KT 340V110 CAVOK 18/10 Q1026
cycle: 10

Station Type Date Time Source
LIMF TAF 2019/09/20 06:21 UTC NOAA

TAF LIMF 200500Z 2006/2106 05007KT 9999 BKN050

Example: see airport list